Time;durP1;ratioP1;P1;durP2;ratioP2;P2;SDS_P1;SDS_P2;PMS_P1;PMS_P2;Temp;Humidity;BMP_temperature;BMP_pressure;BME280_temperature;BME280_humidity;BME280_pressure;Samples;Min_cycle;Max_cycle;Signal;HPM_P1;HPM_P2
2022/09/05 00:01:40;;;;;;;;;;;20.00;96.00;;;;;;5051947;28;19921;-84
2022/09/05 00:04:14;;;;;;;;;;;19.90;96.50;;;;;;5052265;28;19921;-84
2022/09/05 00:06:43;;;;;;;;;;;19.80;97.10;;;;;;5068527;28;19954;-84
2022/09/05 00:09:17;;;;;;;;;;;19.80;96.80;;;;;;5068831;28;19921;-85
2022/09/05 00:12:03;;;;;;;;;;;19.70;97.10;;;;;;5051511;28;19947;-84
2022/09/05 00:14:34;;;;;;;;;;;19.70;96.80;;;;;;5051769;28;19921;-85
2022/09/05 00:17:00;;;;;;;;;;;19.70;97.20;;;;;;5052084;28;19925;-85
2022/09/05 00:19:39;;;;;;;;;;;19.70;97.10;;;;;;5051651;28;20283;-85
2022/09/05 00:22:23;;;;;;;;;;;19.70;96.80;;;;;;5068263;28;20004;-85
2022/09/05 00:24:54;;;;;;;;;;;19.70;97.60;;;;;;5051546;28;20408;-85
2022/09/05 00:27:30;;;;;;;;;;;19.70;97.90;;;;;;5051770;28;19921;-84
2022/09/05 00:29:59;;;;;;;;;;;19.60;98.00;;;;;;5051784;28;19924;-84
2022/09/05 00:32:35;;;;;;;;;;;19.60;98.60;;;;;;5051777;28;19924;-84
2022/09/05 00:35:19;;;;;;;;;;;19.60;98.30;;;;;;5051214;28;20412;-84
2022/09/05 00:37:46;;;;;;;;;;;19.50;98.30;;;;;;5051677;28;19921;-84
2022/09/05 00:40:16;;;;;;;;;;;19.50;99.30;;;;;;5051887;28;20019;-84
2022/09/05 00:42:42;;;;;;;;;;;19.40;99.50;;;;;;5050170;28;20368;-84
2022/09/05 00:45:09;;;;;;;;;;;19.40;99.00;;;;;;5068262;28;19975;-84
2022/09/05 00:47:34;;;;;;;;;;;19.40;98.40;;;;;;5051547;28;19921;-84
2022/09/05 00:50:03;;;;;;;;;;;19.40;98.50;;;;;;5050977;28;20317;-84
2022/09/05 00:52:33;;;;;;;;;;;19.40;98.70;;;;;;5050823;28;19927;-84
2022/09/05 00:55:13;;;;;;;;;;;19.40;98.70;;;;;;5067941;28;19925;-84
2022/09/05 00:57:49;;;;;;;;;;;19.40;98.30;;;;;;5034243;28;20427;-84
2022/09/05 01:00:16;;;;;;;;;;;19.40;98.70;;;;;;5050601;28;19925;-84
2022/09/05 01:03:10;;;;;;;;;;;19.40;98.80;;;;;;5050786;28;19921;-84
2022/09/05 01:05:55;;;;;;;;;;;19.30;99.70;;;;;;5050710;28;20030;-84
2022/09/05 01:08:50;;;;;;;;;;;19.30;99.10;;;;;;5034273;28;19921;-84
2022/09/05 01:11:25;;;;;;;;;;;19.30;98.90;;;;;;5045565;28;20019;-84
2022/09/05 01:14:13;;;;;;;;;;;19.30;99.30;;;;;;5034209;28;19920;-84
2022/09/05 01:16:38;;;;;;;;;;;19.30;99.20;;;;;;5050638;28;20492;-84
2022/09/05 01:19:07;;;;;;;;;;;19.30;99.70;;;;;;5050578;28;19987;-84
2022/09/05 01:21:32;;;;;;;;;;;19.30;99.90;;;;;;5050468;28;19921;-84
2022/09/05 01:23:58;;;;;;;;;;;19.30;99.80;;;;;;5034540;28;19920;-84
2022/09/05 01:26:26;;;;;;;;;;;19.20;99.90;;;;;;5050606;28;20014;-84
2022/09/05 01:29:12;;;;;;;;;;;19.20;99.90;;;;;;5050638;28;20374;-84
2022/09/05 01:31:43;;;;;;;;;;;19.20;99.90;;;;;;5033681;28;19928;-84
2022/09/05 01:34:08;;;;;;;;;;;19.10;99.90;;;;;;5050652;28;20279;-84
2022/09/05 01:36:48;;;;;;;;;;;19.20;99.90;;;;;;5050365;28;19929;-84
2022/09/05 01:39:27;;;;;;;;;;;19.20;99.90;;;;;;5033944;28;19960;-84
2022/09/05 01:42:11;;;;;;;;;;;19.10;99.90;;;;;;5033629;28;19925;-84
2022/09/05 01:44:41;;;;;;;;;;;19.10;99.90;;;;;;5033846;28;19932;-85
2022/09/05 01:47:22;;;;;;;;;;;19.10;99.90;;;;;;5050219;28;19920;-84
2022/09/05 01:49:57;;;;;;;;;;;19.10;99.90;;;;;;5049874;28;19923;-84
2022/09/05 01:52:23;;;;;;;;;;;19.10;99.90;;;;;;5033055;28;19921;-84
2022/09/05 01:55:07;;;;;;;;;;;19.10;99.90;;;;;;5050179;28;20058;-84
2022/09/05 01:57:45;;;;;;;;;;;19.10;99.90;;;;;;5050356;28;19927;-84
2022/09/05 02:00:14;;;;;;;;;;;19.10;99.90;;;;;;5033708;28;19921;-84
2022/09/05 02:03:06;;;;;;;;;;;19.00;99.90;;;;;;5033398;28;19924;-84
2022/09/05 02:05:51;;;;;;;;;;;19.00;99.90;;;;;;5048653;28;19921;-84
2022/09/05 02:08:17;;;;;;;;;;;19.00;99.90;;;;;;5050622;28;20015;-84
2022/09/05 02:11:00;;;;;;;;;;;18.90;99.90;;;;;;5049760;28;20459;-84
2022/09/05 02:13:32;;;;;;;;;;;18.90;99.90;;;;;;5050213;28;19932;-84
2022/09/05 02:16:02;;;;;;;;;;;18.90;99.90;;;;;;5050021;28;19931;-84
2022/09/05 02:18:47;;;;;;;;;;;18.80;99.90;;;;;;5049935;28;19928;-84
2022/09/05 02:21:21;;;;;;;;;;;18.80;99.90;;;;;;5049586;28;19974;-84
2022/09/05 02:23:52;;;;;;;;;;;18.80;99.90;;;;;;5050141;28;19956;-84
2022/09/05 02:26:27;;;;;;;;;;;18.80;99.90;;;;;;5049735;28;19921;-84
2022/09/05 02:28:57;;;;;;;;;;;18.80;99.90;;;;;;5033892;28;19963;-84
2022/09/05 02:31:31;;;;;;;;;;;18.70;99.90;;;;;;5033188;28;20042;-84
2022/09/05 02:34:00;;;;;;;;;;;18.70;99.90;;;;;;5032914;28;19929;-84
2022/09/05 02:36:33;;;;;;;;;;;18.70;99.90;;;;;;5049750;28;19928;-84
2022/09/05 02:39:03;;;;;;;;;;;18.70;99.90;;;;;;5033688;28;19921;-84
2022/09/05 02:41:34;;;;;;;;;;;18.70;99.90;;;;;;5049648;28;19921;-84
2022/09/05 02:44:08;;;;;;;;;;;18.60;99.90;;;;;;5050081;28;19920;-84
2022/09/05 02:46:46;;;;;;;;;;;18.60;99.90;;;;;;5049751;28;19921;-84
2022/09/05 02:49:16;;;;;;;;;;;18.60;99.90;;;;;;5049428;28;19921;-84
2022/09/05 02:51:46;;;;;;;;;;;18.50;99.90;;;;;;5049505;28;19921;-84
2022/09/05 02:54:15;;;;;;;;;;;18.50;99.90;;;;;;5033153;28;19928;-84
2022/09/05 02:57:05;;;;;;;;;;;18.50;99.90;;;;;;5049264;28;19925;-84
2022/09/05 02:59:46;;;;;;;;;;;18.40;99.90;;;;;;5033173;28;19928;-84
2022/09/05 03:02:12;;;;;;;;;;;18.40;99.90;;;;;;5049251;28;19927;-84
2022/09/05 03:04:42;;;;;;;;;;;18.40;99.90;;;;;;5033931;28;19921;-84
2022/09/05 03:07:25;;;;;;;;;;;18.40;99.90;;;;;;5036622;28;19921;-84
2022/09/05 03:09:50;;;;;;;;;;;18.30;99.90;;;;;;5052940;28;19921;-84
2022/09/05 03:12:26;;;;;;;;;;;18.30;99.90;;;;;;5036668;28;19985;-84
2022/09/05 03:14:51;;;;;;;;;;;18.20;99.90;;;;;;5053303;28;19971;-84
2022/09/05 03:17:26;;;;;;;;;;;18.20;99.90;;;;;;5052747;28;19956;-84
2022/09/05 03:20:10;;;;;;;;;;;18.20;99.90;;;;;;5053115;28;19964;-84
2022/09/05 03:22:39;;;;;;;;;;;18.20;99.90;;;;;;5052777;28;19921;-84
2022/09/05 03:25:23;;;;;;;;;;;18.20;99.90;;;;;;5036352;28;20388;-84
2022/09/05 03:27:48;;;;;;;;;;;18.10;99.90;;;;;;5052795;28;19972;-84
2022/09/05 03:30:14;;;;;;;;;;;18.10;99.90;;;;;;5052697;28;19929;-84
2022/09/05 03:32:58;;;;;;;;;;;18.00;99.90;;;;;;5035625;28;19927;-84
2022/09/05 03:35:43;;;;;;;;;;;18.00;99.90;;;;;;5052665;28;19925;-84
2022/09/05 03:38:17;;;;;;;;;;;18.00;99.90;;;;;;5036067;28;20015;-84
2022/09/05 03:40:50;;;;;;;;;;;18.00;99.90;;;;;;5052401;28;20019;-84
2022/09/05 03:43:23;;;;;;;;;;;18.00;99.90;;;;;;5052827;28;19920;-84
2022/09/05 03:46:07;;;;;;;;;;;17.90;99.90;;;;;;5053798;28;19921;-84
2022/09/05 03:48:40;;;;;;;;;;;17.90;99.90;;;;;;5052109;28;20432;-84
2022/09/05 03:51:06;;;;;;;;;;;17.90;99.90;;;;;;5052211;28;20007;-84
2022/09/05 03:53:50;;;;;;;;;;;17.90;99.90;;;;;;5036215;28;19956;-84
2022/09/05 03:56:25;;;;;;;;;;;17.90;99.90;;;;;;5052034;28;19994;-84
2022/09/05 03:59:09;;;;;;;;;;;17.90;99.90;;;;;;5052356;28;20404;-84
2022/09/05 04:01:44;;;;;;;;;;;17.80;99.90;;;;;;5051728;28;19998;-84
2022/09/05 04:04:19;;;;;;;;;;;17.80;99.90;;;;;;5035797;28;19928;-84
2022/09/05 04:06:50;;;;;;;;;;;17.80;99.90;;;;;;5052274;28;19921;-84
2022/09/05 04:09:25;;;;;;;;;;;17.70;99.90;;;;;;5035452;28;19921;-84
2022/09/05 04:12:00;;;;;;;;;;;17.70;99.90;;;;;;5051357;28;19924;-84
2022/09/05 04:14:34;;;;;;;;;;;17.70;99.90;;;;;;5035745;28;20293;-84
2022/09/05 04:17:08;;;;;;;;;;;17.60;99.90;;;;;;5051439;28;19924;-84
2022/09/05 04:19:40;;;;;;;;;;;17.60;99.90;;;;;;5052322;28;19960;-84
2022/09/05 04:22:27;;;;;;;;;;;17.60;99.90;;;;;;5034788;28;19925;-84
2022/09/05 04:24:52;;;;;;;;;;;17.50;99.90;;;;;;5051556;28;20960;-84
2022/09/05 04:27:21;;;;;;;;;;;17.50;99.90;;;;;;5052232;28;19921;-84
2022/09/05 04:29:46;;;;;;;;;;;17.50;99.90;;;;;;5052080;28;19924;-84
2022/09/05 04:32:12;;;;;;;;;;;17.50;99.90;;;;;;5051172;28;19966;-84
2022/09/05 04:34:40;;;;;;;;;;;17.50;99.90;;;;;;5034649;28;19927;-84
2022/09/05 04:37:07;;;;;;;;;;;17.50;99.90;;;;;;5035283;28;19944;-84
2022/09/05 04:39:34;;;;;;;;;;;17.40;99.90;;;;;;5034910;28;20433;-84
2022/09/05 04:42:15;;;;;;;;;;;17.40;99.90;;;;;;5051303;28;19927;-84
2022/09/05 04:44:51;;;;;;;;;;;17.40;99.90;;;;;;5034728;28;19947;-84
2022/09/05 04:47:26;;;;;;;;;;;17.40;99.90;;;;;;5034767;28;19924;-84
2022/09/05 04:49:57;;;;;;;;;;;17.40;99.90;;;;;;5034722;28;19924;-84
2022/09/05 04:52:31;;;;;;;;;;;17.40;99.90;;;;;;5050981;28;19920;-84
2022/09/05 04:55:08;;;;;;;;;;;17.30;99.90;;;;;;5034476;28;19921;-84
2022/09/05 04:57:34;;;;;;;;;;;17.30;99.90;;;;;;5034375;28;19967;-84
2022/09/05 05:00:20;;;;;;;;;;;17.30;99.90;;;;;;5051309;28;19971;-84
2022/09/05 05:02:48;;;;;;;;;;;17.30;99.90;;;;;;5050328;28;19964;-84
2022/09/05 05:05:17;;;;;;;;;;;17.30;99.90;;;;;;5051349;28;19927;-84
2022/09/05 05:07:45;;;;;;;;;;;17.20;99.90;;;;;;5051279;28;20360;-84
2022/09/05 05:10:15;;;;;;;;;;;17.20;99.90;;;;;;5050741;28;19970;-84
2022/09/05 05:12:44;;;;;;;;;;;17.20;99.90;;;;;;5050648;28;19928;-84
2022/09/05 05:15:11;;;;;;;;;;;17.20;99.90;;;;;;5050633;28;20378;-84
2022/09/05 05:17:39;;;;;;;;;;;17.20;99.90;;;;;;5034063;28;19921;-84
2022/09/05 05:20:14;;;;;;;;;;;17.10;99.90;;;;;;5034311;28;19974;-84
2022/09/05 05:22:46;;;;;;;;;;;17.10;99.90;;;;;;5050572;28;20053;-84
2022/09/05 05:25:12;;;;;;;;;;;17.10;99.90;;;;;;5050485;28;19927;-84
2022/09/05 05:27:37;;;;;;;;;;;17.10;99.90;;;;;;5033968;28;19921;-84
2022/09/05 05:30:05;;;;;;;;;;;17.10;99.90;;;;;;5050601;28;19921;-84
2022/09/05 05:32:36;;;;;;;;;;;17.10;99.90;;;;;;5050075;28;19925;-84
2022/09/05 05:35:06;;;;;;;;;;;17.00;99.90;;;;;;5033686;28;19982;-84
2022/09/05 05:37:38;;;;;;;;;;;17.00;99.90;;;;;;5050469;28;19928;-84
2022/09/05 05:40:18;;;;;;;;;;;17.00;99.90;;;;;;5050513;28;20409;-84
2022/09/05 05:42:44;;;;;;;;;;;16.90;99.90;;;;;;5050287;28;19927;-84
2022/09/05 05:45:17;;;;;;;;;;;16.90;99.90;;;;;;5050469;28;20397;-84
2022/09/05 05:47:44;;;;;;;;;;;16.90;99.90;;;;;;5050394;28;19985;-84
2022/09/05 05:50:25;;;;;;;;;;;16.90;99.90;;;;;;5050624;28;19925;-84
2022/09/05 05:53:01;;;;;;;;;;;16.90;99.90;;;;;;5033182;28;19925;-84
2022/09/05 05:55:34;;;;;;;;;;;16.80;99.90;;;;;;5033346;28;19929;-83
2022/09/05 05:58:12;;;;;;;;;;;16.80;99.90;;;;;;5050464;28;19921;-84
2022/09/05 06:00:38;;;;;;;;;;;16.80;99.90;;;;;;5050183;28;19921;-84
2022/09/05 06:03:17;;;;;;;;;;;16.90;99.90;;;;;;5050000;28;20016;-84
2022/09/05 06:05:58;;;;;;;;;;;16.90;99.90;;;;;;5050188;28;19921;-84
2022/09/05 06:08:44;;;;;;;;;;;17.00;99.90;;;;;;5033233;28;19964;-84
2022/09/05 06:11:21;;;;;;;;;;;17.00;99.90;;;;;;5039350;28;20024;-84
2022/09/05 06:14:06;;;;;;;;;;;17.00;99.90;;;;;;5033804;28;19924;-84
2022/09/05 06:16:31;;;;;;;;;;;17.10;99.90;;;;;;5032827;28;19932;-83
2022/09/05 06:19:15;;;;;;;;;;;17.20;99.90;;;;;;5033451;28;19936;-83
2022/09/05 06:21:40;;;;;;;;;;;17.20;99.90;;;;;;5033171;28;19927;-83
2022/09/05 06:24:25;;;;;;;;;;;17.30;99.90;;;;;;5050011;28;20015;-83
2022/09/05 06:26:56;;;;;;;;;;;17.30;99.90;;;;;;5033326;28;19920;-83
2022/09/05 06:29:34;;;;;;;;;;;17.40;99.90;;;;;;5049761;28;19925;-83
2022/09/05 06:32:07;;;;;;;;;;;17.50;99.90;;;;;;5049738;28;19920;-83
2022/09/05 06:34:53;;;;;;;;;;;17.50;99.90;;;;;;5033320;28;19968;-84
2022/09/05 06:37:40;;;;;;;;;;;17.60;99.90;;;;;;5022389;28;19972;-83
2022/09/05 06:40:08;;;;;;;;;;;17.70;99.90;;;;;;5051420;28;19924;-84
2022/09/05 06:42:53;;;;;;;;;;;17.80;99.90;;;;;;5022655;28;19933;-83
2022/09/05 06:45:28;;;;;;;;;;;17.80;99.90;;;;;;5032638;28;19921;-83
2022/09/05 06:48:10;;;;;;;;;;;17.90;99.90;;;;;;5033630;28;19972;-84
2022/09/05 06:50:48;;;;;;;;;;;18.00;99.90;;;;;;5033884;28;20363;-84
2022/09/05 06:53:32;;;;;;;;;;;18.00;99.90;;;;;;5017059;28;20015;-84
2022/09/05 06:56:10;;;;;;;;;;;18.10;99.90;;;;;;5033520;28;19939;-84
2022/09/05 06:58:56;;;;;;;;;;;18.20;99.90;;;;;;5033933;28;20417;-84
2022/09/05 07:01:29;;;;;;;;;;;18.30;99.90;;;;;;5016591;28;19921;-84
2022/09/05 07:04:08;;;;;;;;;;;18.30;99.90;;;;;;5033429;28;19921;-84
2022/09/05 07:06:39;;;;;;;;;;;18.40;99.90;;;;;;5032974;28;19921;-84
2022/09/05 07:09:23;;;;;;;;;;;18.50;99.90;;;;;;5033329;28;20383;-84
2022/09/05 07:11:55;;;;;;;;;;;18.60;99.90;;;;;;5033113;28;20394;-84
2022/09/05 07:14:24;;;;;;;;;;;18.70;99.90;;;;;;5032990;28;20004;-84
2022/09/05 07:16:51;;;;;;;;;;;18.80;99.90;;;;;;5033098;28;19965;-84
2022/09/05 07:19:26;;;;;;;;;;;18.80;99.90;;;;;;5033287;28;20373;-84
2022/09/05 07:22:12;;;;;;;;;;;18.90;99.90;;;;;;5032555;28;19928;-84
2022/09/05 07:24:39;;;;;;;;;;;19.00;99.90;;;;;;5033023;28;19987;-84
2022/09/05 07:27:06;;;;;;;;;;;19.20;99.90;;;;;;5049583;28;19936;-84
2022/09/05 07:29:34;;;;;;;;;;;19.20;99.90;;;;;;5049588;28;19931;-84
2022/09/05 07:32:01;;;;;;;;;;;19.30;99.90;;;;;;5032616;28;19927;-84
2022/09/05 07:34:28;;;;;;;;;;;19.40;99.90;;;;;;5016261;28;19921;-84
2022/09/05 07:36:55;;;;;;;;;;;19.50;99.90;;;;;;5051504;28;19925;-84
2022/09/05 07:39:23;;;;;;;;;;;19.60;99.90;;;;;;5033090;28;20396;-84
2022/09/05 07:41:52;;;;;;;;;;;19.70;99.90;;;;;;5032495;28;19928;-84
2022/09/05 07:44:36;;;;;;;;;;;19.80;99.90;;;;;;5032397;28;20020;-84
2022/09/05 07:47:17;;;;;;;;;;;19.90;99.90;;;;;;5031738;28;20363;-84
2022/09/05 07:49:44;;;;;;;;;;;20.00;99.90;;;;;;5049085;28;19975;-84
2022/09/05 07:52:12;;;;;;;;;;;20.10;99.90;;;;;;5048451;28;20397;-84
2022/09/05 07:54:45;;;;;;;;;;;20.20;99.90;;;;;;5032522;28;19921;-84
2022/09/05 07:57:20;;;;;;;;;;;20.30;99.90;;;;;;5032419;28;19971;-84
2022/09/05 07:59:50;;;;;;;;;;;20.40;99.90;;;;;;5048857;28;19952;-84
2022/09/05 08:02:15;;;;;;;;;;;20.50;99.90;;;;;;5032011;28;20306;-84
2022/09/05 08:04:41;;;;;;;;;;;20.60;99.90;;;;;;5048847;28;20023;-84
2022/09/05 08:07:10;;;;;;;;;;;20.70;99.90;;;;;;5048818;28;20019;-84
2022/09/05 08:09:38;;;;;;;;;;;20.80;99.90;;;;;;5016010;28;20421;-84
2022/09/05 08:12:11;;;;;;;;;;;20.90;99.90;;;;;;5035346;28;19947;-84
2022/09/05 08:14:41;;;;;;;;;;;21.00;99.90;;;;;;5051752;28;19951;-84
2022/09/05 08:17:09;;;;;;;;;;;21.10;99.90;;;;;;5051948;28;19929;-84
2022/09/05 08:19:44;;;;;;;;;;;21.20;99.90;;;;;;5052065;28;19921;-84
2022/09/05 08:22:13;;;;;;;;;;;21.20;99.90;;;;;;5051362;28;20382;-84
2022/09/05 08:24:42;;;;;;;;;;;21.30;99.90;;;;;;5051775;28;19928;-84
2022/09/05 08:27:20;;;;;;;;;;;21.40;99.90;;;;;;5052124;28;19921;-84
2022/09/05 08:30:00;;;;;;;;;;;21.50;99.90;;;;;;5051533;28;20394;-84
2022/09/05 08:32:45;;;;;;;;;;;21.60;99.90;;;;;;5051570;28;19933;-84
2022/09/05 08:35:13;;;;;;;;;;;21.70;99.90;;;;;;5051443;28;19978;-84
2022/09/05 08:37:40;;;;;;;;;;;21.80;99.90;;;;;;5051506;28;19921;-84
2022/09/05 08:40:07;;;;;;;;;;;21.90;99.90;;;;;;5035094;28;19920;-85
2022/09/05 08:42:41;;;;;;;;;;;22.00;99.90;;;;;;5050946;28;19927;-84
2022/09/05 08:45:18;;;;;;;;;;;22.10;99.90;;;;;;5048623;28;19947;-84
2022/09/05 08:47:46;;;;;;;;;;;22.20;99.90;;;;;;5084898;28;19951;-85
2022/09/05 08:50:12;;;;;;;;;;;22.30;99.90;;;;;;5051168;28;19921;-84
2022/09/05 08:52:50;;;;;;;;;;;22.40;99.90;;;;;;5051071;28;20314;-85
2022/09/05 08:55:29;;;;;;;;;;;22.50;99.90;;;;;;5050575;28;21186;-85
2022/09/05 08:57:59;;;;;;;;;;;22.60;99.90;;;;;;5050981;28;19928;-85
2022/09/05 09:00:26;;;;;;;;;;;22.70;99.90;;;;;;5052420;28;19925;-85
2022/09/05 09:03:04;;;;;;;;;;;22.80;99.90;;;;;;5050367;28;20302;-85
2022/09/05 09:05:49;;;;;;;;;;;22.90;99.90;;;;;;5033866;28;19934;-84
2022/09/05 09:08:19;;;;;;;;;;;23.00;99.90;;;;;;5034494;28;19927;-85
2022/09/05 09:10:56;;;;;;;;;;;23.10;99.90;;;;;;5034285;28;20489;-84
2022/09/05 09:13:46;;;;;;;;;;;23.20;99.90;;;;;;5051035;28;19920;-85
2022/09/05 09:16:24;;;;;;;;;;;23.40;99.90;;;;;;5034156;28;20020;-85
2022/09/05 09:18:49;;;;;;;;;;;23.50;99.90;;;;;;5034304;28;19967;-84
2022/09/05 09:21:32;;;;;;;;;;;23.60;99.90;;;;;;5049579;28;19979;-85
2022/09/05 09:24:21;;;;;;;;;;;23.70;99.90;;;;;;5050223;28;19921;-85
2022/09/05 09:26:53;;;;;;;;;;;23.80;99.90;;;;;;5044160;28;19921;-85
2022/09/05 09:29:18;;;;;;;;;;;23.90;99.90;;;;;;5047303;28;20012;-85
2022/09/05 09:31:53;;;;;;;;;;;24.00;99.50;;;;;;5066498;28;20015;-85
2022/09/05 09:34:25;;;;;;;;;;;24.10;99.40;;;;;;5033258;28;19920;-85
2022/09/05 09:37:10;;;;;;;;;;;24.20;99.60;;;;;;5050637;28;19935;-85
2022/09/05 09:39:35;;;;;;;;;;;24.30;98.80;;;;;;5051827;28;20008;-85
2022/09/05 09:42:07;;;;;;;;;;;24.40;99.30;;;;;;5041457;28;20346;-85
2022/09/05 09:45:00;;;;;;;;;;;24.50;97.50;;;;;;5030864;28;20322;-85
2022/09/05 09:47:38;;;;;;;;;;;24.60;97.20;;;;;;5050370;28;19925;-85
2022/09/05 09:50:24;;;;;;;;;;;24.70;97.00;;;;;;5035507;28;19921;-85
2022/09/05 09:52:49;;;;;;;;;;;24.80;96.50;;;;;;5030120;28;19978;-85
2022/09/05 09:55:30;;;;;;;;;;;24.90;95.80;;;;;;5035521;28;19928;-85
2022/09/05 09:58:14;;;;;;;;;;;25.00;95.60;;;;;;5051523;28;19927;-85
2022/09/05 10:00:49;;;;;;;;;;;25.20;94.80;;;;;;5050278;28;19921;-85
2022/09/05 10:03:28;;;;;;;;;;;25.30;94.30;;;;;;5051134;28;19921;-85
2022/09/05 10:06:12;;;;;;;;;;;25.50;93.60;;;;;;5049873;28;20028;-85
2022/09/05 10:08:41;;;;;;;;;;;25.50;93.20;;;;;;5050092;28;19927;-85
2022/09/05 10:11:09;;;;;;;;;;;25.70;93.00;;;;;;5050016;28;19921;-85
2022/09/05 10:13:50;;;;;;;;;;;25.80;93.40;;;;;;5051931;28;19973;-85
2022/09/05 10:16:30;;;;;;;;;;;25.90;92.60;;;;;;5055332;28;19933;-85
2022/09/05 10:19:14;;;;;;;;;;;26.00;91.40;;;;;;5037379;28;19921;-85
2022/09/05 10:22:09;;;;;;;;;;;26.10;90.90;;;;;;5053985;28;20016;-85
2022/09/05 10:24:44;;;;;;;;;;;26.20;90.70;;;;;;5054131;28;19927;-85
2022/09/05 10:27:21;;;;;;;;;;;26.30;88.40;;;;;;5053878;28;19921;-85
2022/09/05 10:30:03;;;;;;;;;;;26.40;87.80;;;;;;5054057;28;19920;-85
2022/09/05 10:32:40;;;;;;;;;;;26.40;85.90;;;;;;5052263;28;19920;-85
2022/09/05 10:35:14;;;;;;;;;;;26.40;88.00;;;;;;5059961;28;19927;-85
2022/09/05 10:37:42;;;;;;;;;;;26.50;88.70;;;;;;5044561;28;19975;-85
2022/09/05 10:40:13;;;;;;;;;;;26.70;88.80;;;;;;5051765;28;20003;-85
2022/09/05 10:42:46;;;;;;;;;;;26.80;84.60;;;;;;5046511;28;19920;-85
2022/09/05 10:45:14;;;;;;;;;;;26.90;84.30;;;;;;5052333;28;19928;-85
2022/09/05 10:47:39;;;;;;;;;;;27.00;78.40;;;;;;5048563;28;19924;-86
2022/09/05 10:50:17;;;;;;;;;;;27.10;78.50;;;;;;5044446;28;19943;-86
2022/09/05 10:52:48;;;;;;;;;;;27.10;78.60;;;;;;5038234;28;19921;-85
2022/09/05 10:55:24;;;;;;;;;;;27.30;77.20;;;;;;5033496;28;20030;-85
2022/09/05 10:57:53;;;;;;;;;;;27.40;74.80;;;;;;5033298;28;19925;-86
2022/09/05 11:00:37;;;;;;;;;;;27.50;74.60;;;;;;5033620;28;19928;-86
2022/09/05 11:03:03;;;;;;;;;;;27.50;74.30;;;;;;5033155;28;19991;-86
2022/09/05 11:05:35;;;;;;;;;;;27.70;74.40;;;;;;5049617;28;20302;-85
2022/09/05 11:08:25;;;;;;;;;;;27.80;71.00;;;;;;5033287;28;19921;-86
2022/09/05 11:10:51;;;;;;;;;;;27.90;72.80;;;;;;5049938;28;20317;-86
2022/09/05 11:13:20;;;;;;;;;;;28.00;71.10;;;;;;5033184;28;20067;-86
2022/09/05 11:15:56;;;;;;;;;;;28.10;68.30;;;;;;5034494;28;19925;-86
2022/09/05 11:18:32;;;;;;;;;;;28.20;67.80;;;;;;5039044;28;20371;-86
2022/09/05 11:21:11;;;;;;;;;;;28.30;67.20;;;;;;5043455;28;19921;-86
2022/09/05 11:23:42;;;;;;;;;;;28.50;68.40;;;;;;5045118;28;19920;-86
2022/09/05 11:26:30;;;;;;;;;;;28.60;66.70;;;;;;5039610;28;20010;-86
2022/09/05 11:29:02;;;;;;;;;;;28.70;66.00;;;;;;5032810;28;20024;-86
2022/09/05 11:31:39;;;;;;;;;;;28.80;64.90;;;;;;5050287;28;19928;-86
2022/09/05 11:34:11;;;;;;;;;;;28.90;64.30;;;;;;5034008;28;19921;-86
2022/09/05 11:36:49;;;;;;;;;;;29.00;64.60;;;;;;5032751;28;19926;-86
2022/09/05 11:39:28;;;;;;;;;;;29.10;64.30;;;;;;5049320;28;19928;-86
2022/09/05 11:41:53;;;;;;;;;;;29.30;63.40;;;;;;5033522;28;19928;-86
2022/09/05 11:44:24;;;;;;;;;;;29.30;63.10;;;;;;5033041;28;19922;-86
2022/09/05 11:47:02;;;;;;;;;;;29.40;62.40;;;;;;5032732;28;19964;-86
2022/09/05 11:49:34;;;;;;;;;;;29.50;61.80;;;;;;5032552;28;19971;-86
2022/09/05 11:52:00;;;;;;;;;;;29.60;62.10;;;;;;5048801;28;19925;-86
2022/09/05 11:54:44;;;;;;;;;;;29.70;59.30;;;;;;5033895;28;19979;-86
2022/09/05 11:57:19;;;;;;;;;;;29.70;59.10;;;;;;5033382;28;19925;-86
2022/09/05 11:59:58;;;;;;;;;;;29.90;58.90;;;;;;5032757;28;19921;-86
2022/09/05 12:02:25;;;;;;;;;;;30.10;58.20;;;;;;5032302;28;20298;-86
2022/09/05 12:05:09;;;;;;;;;;;30.20;58.90;;;;;;5034677;28;20398;-86
2022/09/05 12:07:43;;;;;;;;;;;30.40;58.60;;;;;;5042626;28;19921;-86
2022/09/05 12:10:21;;;;;;;;;;;30.60;54.60;;;;;;5032336;28;19944;-86
2022/09/05 12:12:54;;;;;;;;;;;30.80;54.20;;;;;;5036399;28;19964;-86
2022/09/05 12:15:28;;;;;;;;;;;30.90;55.60;;;;;;5052022;28;19932;-86
2022/09/05 12:17:57;;;;;;;;;;;31.10;55.80;;;;;;5051857;28;19927;-86
2022/09/05 12:20:30;;;;;;;;;;;31.20;54.80;;;;;;5051990;28;20050;-86
2022/09/05 12:22:55;;;;;;;;;;;31.30;54.90;;;;;;5051659;28;19932;-86
2022/09/05 12:25:24;;;;;;;;;;;31.30;54.70;;;;;;5052980;28;19928;-86
2022/09/05 12:27:54;;;;;;;;;;;31.10;51.90;;;;;;5052008;28;19920;-86
2022/09/05 12:30:26;;;;;;;;;;;31.00;53.50;;;;;;5053242;28;20397;-86
2022/09/05 12:32:57;;;;;;;;;;;30.90;53.50;;;;;;5051446;28;19921;-86
2022/09/05 12:35:30;;;;;;;;;;;30.90;54.00;;;;;;5051613;28;20020;-87
2022/09/05 12:37:55;;;;;;;;;;;31.00;54.90;;;;;;5051744;28;20271;-86
2022/09/05 12:40:27;;;;;;;;;;;31.20;53.20;;;;;;5051457;28;19928;-86
2022/09/05 12:42:54;;;;;;;;;;;31.40;53.90;;;;;;5051432;28;19921;-86
2022/09/05 12:45:31;;;;;;;;;;;31.50;53.20;;;;;;5051533;28;20413;-86
2022/09/05 12:48:02;;;;;;;;;;;31.60;52.00;;;;;;5051493;28;19920;-86
2022/09/05 12:50:43;;;;;;;;;;;31.70;51.20;;;;;;5051687;28;19925;-87
2022/09/05 12:53:17;;;;;;;;;;;31.80;50.90;;;;;;5050978;28;19928;-86
2022/09/05 12:55:57;;;;;;;;;;;31.90;50.40;;;;;;5050905;28;19929;-86
2022/09/05 12:58:25;;;;;;;;;;;32.20;51.50;;;;;;5051365;28;19925;-86
2022/09/05 13:00:51;;;;;;;;;;;32.40;50.30;;;;;;5050804;28;20398;-87
2022/09/05 13:03:20;;;;;;;;;;;32.40;50.30;;;;;;5051052;28;20349;-86
2022/09/05 13:05:51;;;;;;;;;;;32.40;48.40;;;;;;5034156;28;19929;-87
2022/09/05 13:08:20;;;;;;;;;;;32.50;47.60;;;;;;5051390;28;20012;-87
2022/09/05 13:10:51;;;;;;;;;;;32.50;49.60;;;;;;5052070;28;19932;-87
2022/09/05 13:13:22;;;;;;;;;;;32.70;49.80;;;;;;5050777;28;19921;-86
2022/09/05 13:15:51;;;;;;;;;;;33.00;48.60;;;;;;5050827;28;19980;-86
2022/09/05 13:18:19;;;;;;;;;;;33.30;49.30;;;;;;5050910;28;20003;-87
2022/09/05 13:20:50;;;;;;;;;;;33.50;48.60;;;;;;5050895;28;19925;-87
2022/09/05 13:23:48;;;;;;;;;;;33.60;48.00;;;;;;5050800;28;19940;-87
2022/09/05 13:26:27;;;;;;;;;;;33.60;45.70;;;;;;5035619;28;19921;-87
2022/09/05 13:28:55;;;;;;;;;;;33.90;45.80;;;;;;5039708;28;20294;-87
2022/09/05 13:31:36;;;;;;;;;;;33.90;46.20;;;;;;5039960;28;19928;-86
2022/09/05 13:34:04;;;;;;;;;;;34.20;45.70;;;;;;5041330;28;19931;-87
2022/09/05 13:36:30;;;;;;;;;;;34.50;46.20;;;;;;5041013;28;19933;-87
2022/09/05 13:38:59;;;;;;;;;;;34.30;44.30;;;;;;5039026;28;20357;-86
2022/09/05 13:41:35;;;;;;;;;;;34.10;45.70;;;;;;5040325;28;20256;-87
2022/09/05 13:44:06;;;;;;;;;;;33.90;45.20;;;;;;5050217;28;19928;-86
2022/09/05 13:46:37;;;;;;;;;;;34.00;45.40;;;;;;5041019;28;19921;-87
2022/09/05 13:49:03;;;;;;;;;;;34.30;45.60;;;;;;5039416;28;20329;-87
2022/09/05 13:51:31;;;;;;;;;;;34.70;44.60;;;;;;5044280;28;20447;-86
2022/09/05 13:54:23;;;;;;;;;;;35.10;44.10;;;;;;5050063;28;20059;-86
2022/09/05 13:57:14;;;;;;;;;;;35.20;43.20;;;;;;5069785;28;19928;-87
2022/09/05 13:59:41;;;;;;;;;;;35.40;42.50;;;;;;5050160;28;19970;-87
2022/09/05 14:02:25;;;;;;;;;;;35.40;43.70;;;;;;5049656;28;20502;-86
2022/09/05 14:05:12;;;;;;;;;;;35.20;43.40;;;;;;5066437;28;19920;-87
2022/09/05 14:07:40;;;;;;;;;;;34.90;42.70;;;;;;5050333;28;20007;-87
2022/09/05 14:10:24;;;;;;;;;;;34.90;42.80;;;;;;5051061;28;19921;-87
2022/09/05 14:13:14;;;;;;;;;;;34.80;44.30;;;;;;5051417;28;19959;-86
2022/09/05 14:15:48;;;;;;;;;;;34.90;42.40;;;;;;5049681;28;19925;-87
2022/09/05 14:18:28;;;;;;;;;;;35.00;43.70;;;;;;5050187;28;19925;-87
2022/09/05 14:21:15;;;;;;;;;;;35.10;42.30;;;;;;5049961;28;20294;-86
2022/09/05 14:23:55;;;;;;;;;;;35.20;42.10;;;;;;5051252;28;19921;-87
2022/09/05 14:26:28;;;;;;;;;;;35.10;42.60;;;;;;5034019;28;19921;-87
2022/09/05 14:29:01;;;;;;;;;;;35.10;42.70;;;;;;5033320;28;19928;-87
2022/09/05 14:31:31;;;;;;;;;;;35.20;41.70;;;;;;5049444;28;20015;-86
2022/09/05 14:33:58;;;;;;;;;;;35.30;40.50;;;;;;5066725;28;19920;-86
2022/09/05 14:36:23;;;;;;;;;;;35.40;41.10;;;;;;5049856;28;19932;-87
2022/09/05 14:38:49;;;;;;;;;;;35.60;41.70;;;;;;5049616;28;19920;-87
2022/09/05 14:41:28;;;;;;;;;;;35.70;39.60;;;;;;5042419;28;19970;-87
2022/09/05 14:43:56;;;;;;;;;;;35.70;39.80;;;;;;5049022;28;19960;-87
2022/09/05 14:46:25;;;;;;;;;;;35.70;39.60;;;;;;5049516;28;19921;-87
2022/09/05 14:48:56;;;;;;;;;;;35.80;39.60;;;;;;5044325;28;20255;-86
2022/09/05 14:51:29;;;;;;;;;;;36.00;40.60;;;;;;5040396;28;20367;-86
2022/09/05 14:53:54;;;;;;;;;;;36.00;40.70;;;;;;5040327;28;19921;-86
2022/09/05 14:56:23;;;;;;;;;;;36.10;40.80;;;;;;5043298;28;20294;-87